sensor_id;sensor_type;location;lat;lon;timestamp;pressure;altitude;pressure_sealevel;temperature;humidity
21273;BME280;36726;52.328;10.552;2023-01-28T00:01:31;101759.53;;;1.82;78.23
21273;BME280;36726;52.328;10.552;2023-01-28T00:03:58;101761.72;;;1.76;79.04
21273;BME280;36726;52.328;10.552;2023-01-28T00:06:24;101760.53;;;1.71;79.28
21273;BME280;36726;52.328;10.552;2023-01-28T00:08:51;101765.75;;;1.71;79.11
21273;BME280;36726;52.328;10.552;2023-01-28T00:11:17;101764.06;;;1.71;79.87
21273;BME280;36726;52.328;10.552;2023-01-28T00:13:44;101762.66;;;1.76;79.55
21273;BME280;36726;52.328;10.552;2023-01-28T00:16:11;101762.25;;;1.83;79.75
21273;BME280;36726;52.328;10.552;2023-01-28T00:18:38;101762.66;;;1.89;79.42
21273;BME280;36726;52.328;10.552;2023-01-28T00:21:07;101764.78;;;1.95;79.77
21273;BME280;36726;52.328;10.552;2023-01-28T00:23:36;101760.94;;;2.03;80.05
21273;BME280;36726;52.328;10.552;2023-01-28T00:26:06;101763.22;;;2.11;80.36
21273;BME280;36726;52.328;10.552;2023-01-28T00:28:33;101765.66;;;2.22;79.91
21273;BME280;36726;52.328;10.552;2023-01-28T00:31:15;101756.59;;;2.30;80.15
21273;BME280;36726;52.328;10.552;2023-01-28T00:33:47;101755.31;;;2.36;80.00
21273;BME280;36726;52.328;10.552;2023-01-28T00:36:16;101751.44;;;2.44;80.04
21273;BME280;36726;52.328;10.552;2023-01-28T00:38:51;101758.06;;;2.52;79.79
21273;BME280;36726;52.328;10.552;2023-01-28T00:41:20;101759.44;;;2.60;79.32
21273;BME280;36726;52.328;10.552;2023-01-28T00:43:49;101765.06;;;2.66;78.78
21273;BME280;36726;52.328;10.552;2023-01-28T00:46:16;101759.16;;;2.69;78.37
21273;BME280;36726;52.328;10.552;2023-01-28T00:48:44;101755.81;;;2.71;78.56
21273;BME280;36726;52.328;10.552;2023-01-28T00:51:13;101760.41;;;2.75;78.33
21273;BME280;36726;52.328;10.552;2023-01-28T00:53:41;101758.28;;;2.83;78.28
21273;BME280;36726;52.328;10.552;2023-01-28T00:56:10;101761.19;;;2.87;77.37
21273;BME280;36726;52.328;10.552;2023-01-28T00:58:38;101763.19;;;2.91;77.64
21273;BME280;36726;52.328;10.552;2023-01-28T01:01:20;101767.78;;;2.95;76.97
21273;BME280;36726;52.328;10.552;2023-01-28T01:03:47;101767.88;;;2.97;75.62
21273;BME280;36726;52.328;10.552;2023-01-28T01:06:23;101773.19;;;2.98;75.20
21273;BME280;36726;52.328;10.552;2023-01-28T01:08:50;101773.19;;;2.98;75.07
21273;BME280;36726;52.328;10.552;2023-01-28T01:11:17;101775.91;;;3.00;75.23
21273;BME280;36726;52.328;10.552;2023-01-28T01:13:55;101786.56;;;3.03;75.27
21273;BME280;36726;52.328;10.552;2023-01-28T01:16:25;101787.56;;;3.05;75.30
21273;BME280;36726;52.328;10.552;2023-01-28T01:18:52;101790.44;;;3.09;75.27
21273;BME280;36726;52.328;10.552;2023-01-28T01:21:21;101778.38;;;3.11;74.59
21273;BME280;36726;52.328;10.552;2023-01-28T01:23:50;101785.22;;;3.09;73.77
21273;BME280;36726;52.328;10.552;2023-01-28T01:26:16;101776.38;;;3.07;74.07
21273;BME280;36726;52.328;10.552;2023-01-28T01:28:43;101781.78;;;3.10;74.15
21273;BME280;36726;52.328;10.552;2023-01-28T01:31:17;101781.09;;;3.13;74.34
21273;BME280;36726;52.328;10.552;2023-01-28T01:33:45;101784.78;;;3.16;74.01
21273;BME280;36726;52.328;10.552;2023-01-28T01:36:14;101782.25;;;3.18;73.71
21273;BME280;36726;52.328;10.552;2023-01-28T01:38:43;101789.41;;;3.21;73.61
21273;BME280;36726;52.328;10.552;2023-01-28T01:41:22;101787.69;;;3.21;73.55
21273;BME280;36726;52.328;10.552;2023-01-28T01:43:52;101775.50;;;3.22;73.82
21273;BME280;36726;52.328;10.552;2023-01-28T01:46:42;101777.25;;;3.21;73.47
21273;BME280;36726;52.328;10.552;2023-01-28T01:49:25;101774.63;;;3.21;74.12
21273;BME280;36726;52.328;10.552;2023-01-28T01:52:02;101775.50;;;3.22;73.55
21273;BME280;36726;52.328;10.552;2023-01-28T01:54:32;101781.66;;;3.22;73.62
21273;BME280;36726;52.328;10.552;2023-01-28T01:57:01;101789.56;;;3.24;73.38
21273;BME280;36726;52.328;10.552;2023-01-28T01:59:30;101791.19;;;3.22;73.12
21273;BME280;36726;52.328;10.552;2023-01-28T02:02:04;101796.41;;;3.22;72.91
21273;BME280;36726;52.328;10.552;2023-01-28T02:04:41;101793.94;;;3.23;73.04
21273;BME280;36726;52.328;10.552;2023-01-28T02:07:14;101796.63;;;3.25;72.44
21273;BME280;36726;52.328;10.552;2023-01-28T02:09:42;101796.53;;;3.23;72.53
21273;BME280;36726;52.328;10.552;2023-01-28T02:12:17;101798.25;;;3.23;72.70
21273;BME280;36726;52.328;10.552;2023-01-28T02:14:47;101788.69;;;3.23;73.06
21273;BME280;36726;52.328;10.552;2023-01-28T02:17:16;101792.19;;;3.24;72.86
21273;BME280;36726;52.328;10.552;2023-01-28T02:19:58;101789.56;;;3.24;73.13
21273;BME280;36726;52.328;10.552;2023-01-28T02:37:06;101802.84;;;3.27;71.59
21273;BME280;36726;52.328;10.552;2023-01-28T02:39:40;101802.03;;;3.28;71.67
21273;BME280;36726;52.328;10.552;2023-01-28T02:42:22;101791.66;;;3.29;71.84
21273;BME280;36726;52.328;10.552;2023-01-28T02:44:49;101788.34;;;3.32;72.45
21273;BME280;36726;52.328;10.552;2023-01-28T02:47:16;101789.25;;;3.32;72.43
21273;BME280;36726;52.328;10.552;2023-01-28T02:50:06;101789.34;;;3.34;72.67
21273;BME280;36726;52.328;10.552;2023-01-28T02:53:10;101789.53;;;3.37;72.70
21273;BME280;36726;52.328;10.552;2023-01-28T02:56:10;101791.31;;;3.38;72.97
21273;BME280;36726;52.328;10.552;2023-01-28T02:59:03;101787.81;;;3.37;71.98
21273;BME280;36726;52.328;10.552;2023-01-28T03:02:02;101785.28;;;3.39;72.28
21273;BME280;36726;52.328;10.552;2023-01-28T03:04:37;101784.38;;;3.38;72.05
21273;BME280;36726;52.328;10.552;2023-01-28T03:07:07;101790.53;;;3.39;71.97
21273;BME280;36726;52.328;10.552;2023-01-28T03:09:36;101777.34;;;3.37;72.54
21273;BME280;36726;52.328;10.552;2023-01-28T03:12:15;101781.50;;;3.34;72.98
21273;BME280;36726;52.328;10.552;2023-01-28T03:15:18;101783.13;;;3.32;73.27
21273;BME280;36726;52.328;10.552;2023-01-28T03:18:12;101775.19;;;3.30;73.81
21273;BME280;36726;52.328;10.552;2023-01-28T03:21:10;101780.50;;;3.32;74.14
21273;BME280;36726;52.328;10.552;2023-01-28T03:24:16;101778.06;;;3.35;74.30
21273;BME280;36726;52.328;10.552;2023-01-28T03:27:20;101783.47;;;3.38;74.68
21273;BME280;36726;52.328;10.552;2023-01-28T03:33:07;101780.16;;;3.40;74.80
21273;BME280;36726;52.328;10.552;2023-01-28T03:35:53;101774.13;;;3.41;74.42
21273;BME280;36726;52.328;10.552;2023-01-28T03:38:40;101774.22;;;3.43;73.95
21273;BME280;36726;52.328;10.552;2023-01-28T03:41:11;101778.69;;;3.45;73.45
21273;BME280;36726;52.328;10.552;2023-01-28T03:43:39;101784.84;;;3.46;73.72
21273;BME280;36726;52.328;10.552;2023-01-28T03:46:05;101776.09;;;3.45;74.66
21273;BME280;36726;52.328;10.552;2023-01-28T03:48:32;101784.75;;;3.44;74.43
21273;BME280;36726;52.328;10.552;2023-01-28T03:51:02;101782.22;;;3.46;74.07
21273;BME280;36726;52.328;10.552;2023-01-28T03:53:29;101785.03;;;3.49;73.23
21273;BME280;36726;52.328;10.552;2023-01-28T03:55:56;101785.94;;;3.49;73.33
21273;BME280;36726;52.328;10.552;2023-01-28T03:58:24;101780.63;;;3.48;73.17
21273;BME280;36726;52.328;10.552;2023-01-28T04:00:52;101782.41;;;3.49;73.35
21273;BME280;36726;52.328;10.552;2023-01-28T04:03:20;101779.91;;;3.50;73.35
21273;BME280;36726;52.328;10.552;2023-01-28T04:06:02;101781.69;;;3.51;73.79
21273;BME280;36726;52.328;10.552;2023-01-28T04:08:54;101784.41;;;3.53;73.51
21273;BME280;36726;52.328;10.552;2023-01-28T04:11:25;101779.16;;;3.53;73.61
21273;BME280;36726;52.328;10.552;2023-01-28T04:13:53;101781.97;;;3.56;73.49
21273;BME280;36726;52.328;10.552;2023-01-28T04:16:21;101787.94;;;3.53;72.88
21273;BME280;36726;52.328;10.552;2023-01-28T04:18:47;101790.47;;;3.52;73.45
21273;BME280;36726;52.328;10.552;2023-01-28T04:21:15;101793.06;;;3.52;72.92
21273;BME280;36726;52.328;10.552;2023-01-28T04:23:42;101794.88;;;3.53;73.41
21273;BME280;36726;52.328;10.552;2023-01-28T04:26:11;101806.06;;;3.50;73.02
21273;BME280;36726;52.328;10.552;2023-01-28T04:28:38;101801.63;;;3.49;73.04
21273;BME280;36726;52.328;10.552;2023-01-28T04:31:04;101803.31;;;3.49;72.82
21273;BME280;36726;52.328;10.552;2023-01-28T04:33:34;101808.56;;;3.49;72.62
21273;BME280;36726;52.328;10.552;2023-01-28T04:36:24;101810.38;;;3.50;72.83
21273;BME280;36726;52.328;10.552;2023-01-28T04:39:14;101813.78;;;3.49;72.09
21273;BME280;36726;52.328;10.552;2023-01-28T04:41:56;101816.22;;;3.46;71.93
21273;BME280;36726;52.328;10.552;2023-01-28T04:44:38;101812.53;;;3.42;70.59
21273;BME280;36726;52.328;10.552;2023-01-28T04:47:16;101817.38;;;3.36;68.30
21273;BME280;36726;52.328;10.552;2023-01-28T04:49:53;101823.13;;;3.31;68.70
21273;BME280;36726;52.328;10.552;2023-01-28T04:52:46;101819.50;;;3.29;68.78
21273;BME280;36726;52.328;10.552;2023-01-28T04:55:36;101822.13;;;3.29;68.99
21273;BME280;36726;52.328;10.552;2023-01-28T04:58:03;101818.63;;;3.28;68.73
21273;BME280;36726;52.328;10.552;2023-01-28T05:00:32;101818.56;;;3.27;67.94
21273;BME280;36726;52.328;10.552;2023-01-28T05:02:59;101820.94;;;3.24;67.69
21273;BME280;36726;52.328;10.552;2023-01-28T05:05:25;101828.63;;;3.21;67.57
21273;BME280;36726;52.328;10.552;2023-01-28T05:07:56;101824.81;;;3.15;67.42
21273;BME280;36726;52.328;10.552;2023-01-28T05:10:24;101826.44;;;3.13;66.35
21273;BME280;36726;52.328;10.552;2023-01-28T05:12:52;101825.03;;;3.05;65.04
21273;BME280;36726;52.328;10.552;2023-01-28T05:15:20;101821.94;;;2.98;65.25
21273;BME280;36726;52.328;10.552;2023-01-28T05:17:48;101830.59;;;2.97;66.13
21273;BME280;36726;52.328;10.552;2023-01-28T05:20:18;101829.69;;;2.96;66.97
21273;BME280;36726;52.328;10.552;2023-01-28T05:22:47;101831.53;;;2.97;67.29
21273;BME280;36726;52.328;10.552;2023-01-28T05:25:19;101829.09;;;3.00;67.28
21273;BME280;36726;52.328;10.552;2023-01-28T05:27:52;101825.78;;;3.03;67.26
21273;BME280;36726;52.328;10.552;2023-01-28T05:30:19;101821.44;;;3.03;67.32
21273;BME280;36726;52.328;10.552;2023-01-28T05:32:46;101822.34;;;3.04;67.11
21273;BME280;36726;52.328;10.552;2023-01-28T05:35:15;101819.81;;;3.05;67.16
21273;BME280;36726;52.328;10.552;2023-01-28T05:37:43;101821.63;;;3.06;67.19
21273;BME280;36726;52.328;10.552;2023-01-28T05:40:10;101820.03;;;3.08;67.24
21273;BME280;36726;52.328;10.552;2023-01-28T05:42:37;101828.03;;;3.11;67.67
21273;BME280;36726;52.328;10.552;2023-01-28T05:45:19;101824.53;;;3.11;66.85
21273;BME280;36726;52.328;10.552;2023-01-28T05:48:08;101824.44;;;3.09;66.89
21273;BME280;36726;52.328;10.552;2023-01-28T05:50:48;101825.25;;;3.08;66.80
21273;BME280;36726;52.328;10.552;2023-01-28T05:53:18;101824.34;;;3.08;67.26
21273;BME280;36726;52.328;10.552;2023-01-28T05:55:49;101829.56;;;3.08;66.54
21273;BME280;36726;52.328;10.552;2023-01-28T05:58:16;101824.25;;;3.06;66.44
21273;BME280;36726;52.328;10.552;2023-01-28T06:00:43;101815.22;;;3.01;65.07
21273;BME280;36726;52.328;10.552;2023-01-28T06:03:10;101815.84;;;2.97;65.37
21273;BME280;36726;52.328;10.552;2023-01-28T06:05:38;101818.34;;;2.96;65.17
21273;BME280;36726;52.328;10.552;2023-01-28T06:08:05;101820.16;;;2.97;65.31
21273;BME280;36726;52.328;10.552;2023-01-28T06:10:32;101820.34;;;3.00;65.14
21273;BME280;36726;52.328;10.552;2023-01-28T06:12:59;101819.53;;;3.01;64.98
21273;BME280;36726;52.328;10.552;2023-01-28T06:15:28;101814.22;;;2.99;65.18
21273;BME280;36726;52.328;10.552;2023-01-28T06:17:59;101814.22;;;2.99;65.34
21273;BME280;36726;52.328;10.552;2023-01-28T06:20:28;101824.69;;;2.99;65.38
21273;BME280;36726;52.328;10.552;2023-01-28T06:22:56;101821.25;;;3.00;65.36
21273;BME280;36726;52.328;10.552;2023-01-28T06:25:22;101832.69;;;3.02;65.63
21273;BME280;36726;52.328;10.552;2023-01-28T06:27:49;101834.22;;;2.99;63.63
21273;BME280;36726;52.328;10.552;2023-01-28T06:30:16;101833.81;;;2.93;64.38
21273;BME280;36726;52.328;10.552;2023-01-28T06:32:43;101832.13;;;2.93;64.47
21273;BME280;36726;52.328;10.552;2023-01-28T06:35:10;101828.69;;;2.94;64.51
21273;BME280;36726;52.328;10.552;2023-01-28T06:37:37;101835.75;;;2.95;64.92
21273;BME280;36726;52.328;10.552;2023-01-28T06:40:05;101839.28;;;2.96;64.98
21273;BME280;36726;52.328;10.552;2023-01-28T06:42:31;101841.97;;;2.97;65.01
21273;BME280;36726;52.328;10.552;2023-01-28T06:44:58;101838.75;;;3.01;65.09
21273;BME280;36726;52.328;10.552;2023-01-28T06:47:24;101838.03;;;3.04;65.37
21273;BME280;36726;52.328;10.552;2023-01-28T06:49:51;101830.28;;;3.05;65.55
21273;BME280;36726;52.328;10.552;2023-01-28T06:52:18;101835.72;;;3.08;65.47
21273;BME280;36726;52.328;10.552;2023-01-28T06:54:44;101840.22;;;3.11;65.83
21273;BME280;36726;52.328;10.552;2023-01-28T06:57:11;101829.06;;;3.13;65.54
21273;BME280;36726;52.328;10.552;2023-01-28T06:59:37;101834.47;;;3.16;66.02
21273;BME280;36726;52.328;10.552;2023-01-28T07:02:05;101829.31;;;3.18;65.78
21273;BME280;36726;52.328;10.552;2023-01-28T07:04:32;101833.94;;;3.22;65.79
21273;BME280;36726;52.328;10.552;2023-01-28T07:06:58;101832.16;;;3.21;65.54
21273;BME280;36726;52.328;10.552;2023-01-28T07:09:25;101835.63;;;3.22;66.39
21273;BME280;36726;52.328;10.552;2023-01-28T07:11:51;101841.00;;;3.23;65.94
21273;BME280;36726;52.328;10.552;2023-01-28T07:14:18;101839.34;;;3.25;65.81
21273;BME280;36726;52.328;10.552;2023-01-28T07:16:44;101843.78;;;3.26;66.38
21273;BME280;36726;52.328;10.552;2023-01-28T07:19:11;101844.78;;;3.28;65.95
21273;BME280;36726;52.328;10.552;2023-01-28T07:21:38;101852.41;;;3.25;64.63
21273;BME280;36726;52.328;10.552;2023-01-28T07:24:04;101849.72;;;3.24;64.54
21273;BME280;36726;52.328;10.552;2023-01-28T07:26:31;101849.81;;;3.25;63.98
21273;BME280;36726;52.328;10.552;2023-01-28T07:28:58;101858.47;;;3.24;63.83
21273;BME280;36726;52.328;10.552;2023-01-28T07:31:27;101849.81;;;3.25;64.04
21273;BME280;36726;52.328;10.552;2023-01-28T07:33:54;101854.34;;;3.28;64.14
21273;BME280;36726;52.328;10.552;2023-01-28T07:36:22;101858.13;;;3.33;64.11
21273;BME280;36726;52.328;10.552;2023-01-28T07:38:49;101846.06;;;3.35;64.32
21273;BME280;36726;52.328;10.552;2023-01-28T07:41:15;101858.34;;;3.36;64.94
21273;BME280;36726;52.328;10.552;2023-01-28T07:43:42;101852.38;;;3.38;65.49
21273;BME280;36726;52.328;10.552;2023-01-28T07:46:08;101843.00;;;3.42;65.65
21273;BME280;36726;52.328;10.552;2023-01-28T07:48:35;101846.78;;;3.47;65.73
21273;BME280;36726;52.328;10.552;2023-01-28T07:51:01;101852.25;;;3.50;65.20
21273;BME280;36726;52.328;10.552;2023-01-28T07:53:28;101857.72;;;3.54;65.00
21273;BME280;36726;52.328;10.552;2023-01-28T07:55:59;101851.88;;;3.58;64.09
21273;BME280;36726;52.328;10.552;2023-01-28T07:58:27;101853.88;;;3.62;63.83
21273;BME280;36726;52.328;10.552;2023-01-28T08:00:57;101853.16;;;3.65;63.82
21273;BME280;36726;52.328;10.552;2023-01-28T08:03:25;101851.44;;;3.65;64.33
21273;BME280;36726;52.328;10.552;2023-01-28T08:05:53;101865.34;;;3.64;63.94
21273;BME280;36726;52.328;10.552;2023-01-28T08:08:22;101867.13;;;3.65;64.22
21273;BME280;36726;52.328;10.552;2023-01-28T08:10:49;101857.59;;;3.66;64.14
21273;BME280;36726;52.328;10.552;2023-01-28T08:13:17;101871.47;;;3.65;63.88
21273;BME280;36726;52.328;10.552;2023-01-28T08:15:44;101868.75;;;3.63;63.60
21273;BME280;36726;52.328;10.552;2023-01-28T08:18:12;101869.56;;;3.62;63.20
21273;BME280;36726;52.328;10.552;2023-01-28T08:20:39;101882.56;;;3.61;64.29
21273;BME280;36726;52.328;10.552;2023-01-28T08:23:13;101876.69;;;3.65;64.46
21273;BME280;36726;52.328;10.552;2023-01-28T08:25:40;101868.06;;;3.66;63.84
21273;BME280;36726;52.328;10.552;2023-01-28T08:28:07;101880.22;;;3.65;64.18
21273;BME280;36726;52.328;10.552;2023-01-28T08:30:35;101888.16;;;3.67;64.01
21273;BME280;36726;52.328;10.552;2023-01-28T08:33:05;101895.31;;;3.69;63.96
21273;BME280;36726;52.328;10.552;2023-01-28T08:35:32;101890.25;;;3.72;63.96
21273;BME280;36726;52.328;10.552;2023-01-28T08:38:00;101895.47;;;3.72;64.60
21273;BME280;36726;52.328;10.552;2023-01-28T08:40:27;101901.63;;;3.73;64.13
21273;BME280;36726;52.328;10.552;2023-01-28T08:42:54;101895.41;;;3.71;63.13
21273;BME280;36726;52.328;10.552;2023-01-28T08:45:23;101900.09;;;3.76;63.01
21273;BME280;36726;52.328;10.552;2023-01-28T08:50:25;101912.91;;;3.86;63.39
21273;BME280;36726;52.328;10.552;2023-01-28T08:52:56;101913.31;;;3.92;62.67
21273;BME280;36726;52.328;10.552;2023-01-28T08:55:24;101907.53;;;3.98;63.02
21273;BME280;36726;52.328;10.552;2023-01-28T08:57:51;101924.63;;;4.06;63.11
21273;BME280;36726;52.328;10.552;2023-01-28T09:00:19;101923.97;;;4.10;62.70
21273;BME280;36726;52.328;10.552;2023-01-28T09:02:46;101924.34;;;4.16;61.32
21273;BME280;36726;52.328;10.552;2023-01-28T09:05:15;101910.72;;;4.21;61.77
21273;BME280;36726;52.328;10.552;2023-01-28T09:07:42;101914.59;;;4.28;61.32
21273;BME280;36726;52.328;10.552;2023-01-28T09:10:09;101917.56;;;4.34;61.47
21273;BME280;36726;52.328;10.552;2023-01-28T09:12:36;101913.94;;;4.47;61.36
21273;BME280;36726;52.328;10.552;2023-01-28T09:15:03;101923.06;;;4.53;60.27
21273;BME280;36726;52.328;10.552;2023-01-28T09:17:30;101936.69;;;4.62;60.80
21273;BME280;36726;52.328;10.552;2023-01-28T09:19:57;101934.44;;;4.68;60.46
21273;BME280;36726;52.328;10.552;2023-01-28T09:22:23;101941.75;;;4.74;59.27
21273;BME280;36726;52.328;10.552;2023-01-28T09:24:50;101944.00;;;4.82;59.53
21273;BME280;36726;52.328;10.552;2023-01-28T09:27:17;101944.34;;;4.88;59.72
21273;BME280;36726;52.328;10.552;2023-01-28T09:29:44;101944.19;;;4.85;59.72
21273;BME280;36726;52.328;10.552;2023-01-28T09:32:10;101948.78;;;4.75;58.93
21273;BME280;36726;52.328;10.552;2023-01-28T09:34:37;101945.09;;;4.71;59.36
21273;BME280;36726;52.328;10.552;2023-01-28T09:37:03;101950.78;;;4.79;58.80
21273;BME280;36726;52.328;10.552;2023-01-28T09:39:30;101947.59;;;4.84;58.95
21273;BME280;36726;52.328;10.552;2023-01-28T09:45:01;101976.00;;;4.62;57.78
21273;BME280;36726;52.328;10.552;2023-01-28T09:47:38;101973.84;;;4.55;59.28
21273;BME280;36726;52.328;10.552;2023-01-28T09:50:10;101973.50;;;4.49;58.92
21273;BME280;36726;52.328;10.552;2023-01-28T09:52:39;101977.53;;;4.44;59.22
21273;BME280;36726;52.328;10.552;2023-01-28T09:58:10;101982.88;;;4.31;59.32
21273;BME280;36726;52.328;10.552;2023-01-28T10:00:49;101984.13;;;4.23;58.70
21273;BME280;36726;52.328;10.552;2023-01-28T10:14:42;101976.03;;;3.91;60.45
21273;BME280;36726;52.328;10.552;2023-01-28T10:17:41;101974.25;;;3.90;60.41
21273;BME280;36726;52.328;10.552;2023-01-28T10:22:42;101956.78;;;3.90;60.32
21273;BME280;36726;52.328;10.552;2023-01-28T10:25:21;101952.66;;;3.94;60.85
21273;BME280;36726;52.328;10.552;2023-01-28T10:27:49;101955.34;;;3.95;60.93
21273;BME280;36726;52.328;10.552;2023-01-28T10:30:25;101962.50;;;3.98;61.48
21273;BME280;36726;52.328;10.552;2023-01-28T10:32:55;101963.50;;;4.00;60.93
21273;BME280;36726;52.328;10.552;2023-01-28T10:35:24;101951.13;;;3.97;60.76
21273;BME280;36726;52.328;10.552;2023-01-28T10:37:58;101956.09;;;3.93;60.29
21273;BME280;36726;52.328;10.552;2023-01-28T10:40:27;101956.72;;;3.89;60.72
21273;BME280;36726;52.328;10.552;2023-01-28T10:42:54;101952.81;;;3.82;60.05
21273;BME280;36726;52.328;10.552;2023-01-28T10:45:35;101954.06;;;3.74;60.48
21273;BME280;36726;52.328;10.552;2023-01-28T10:48:17;101961.41;;;3.67;60.67
21273;BME280;36726;52.328;10.552;2023-01-28T10:50:53;101953.13;;;3.59;60.65
21273;BME280;36726;52.328;10.552;2023-01-28T10:53:40;101948.28;;;3.52;60.88
21273;BME280;36726;52.328;10.552;2023-01-28T10:56:14;101947.00;;;3.46;60.77
21273;BME280;36726;52.328;10.552;2023-01-28T10:58:58;101940.97;;;3.47;60.71
21273;BME280;36726;52.328;10.552;2023-01-28T11:07:04;101947.31;;;3.50;61.40
21273;BME280;36726;52.328;10.552;2023-01-28T11:09:37;101942.78;;;3.48;61.12
21273;BME280;36726;52.328;10.552;2023-01-28T11:12:20;101940.16;;;3.48;61.23
21273;BME280;36726;52.328;10.552;2023-01-28T11:14:55;101952.16;;;3.44;61.93
21273;BME280;36726;52.328;10.552;2023-01-28T11:17:24;101954.47;;;3.40;61.22
21273;BME280;36726;52.328;10.552;2023-01-28T11:19:52;101952.84;;;3.42;61.63
21273;BME280;36726;52.328;10.552;2023-01-28T11:22:31;101953.94;;;3.45;61.98
21273;BME280;36726;52.328;10.552;2023-01-28T11:25:00;101958.88;;;3.54;62.36
21273;BME280;36726;52.328;10.552;2023-01-28T11:27:30;101953.00;;;3.58;62.38
21273;BME280;36726;52.328;10.552;2023-01-28T11:30:00;101959.22;;;3.60;61.88
21273;BME280;36726;52.328;10.552;2023-01-28T11:32:30;101962.84;;;3.62;62.03
21273;BME280;36726;52.328;10.552;2023-01-28T11:34:57;101963.84;;;3.64;61.16
21273;BME280;36726;52.328;10.552;2023-01-28T11:37:25;101959.44;;;3.63;61.44
21273;BME280;36726;52.328;10.552;2023-01-28T11:40:24;101955.91;;;3.62;61.38
21273;BME280;36726;52.328;10.552;2023-01-28T11:42:50;101948.41;;;3.54;61.46
21273;BME280;36726;52.328;10.552;2023-01-28T11:45:24;101943.88;;;3.51;60.74
21273;BME280;36726;52.328;10.552;2023-01-28T11:50:50;101933.69;;;3.56;61.23
21273;BME280;36726;52.328;10.552;2023-01-28T11:53:53;101932.28;;;3.61;60.66
21273;BME280;36726;52.328;10.552;2023-01-28T11:56:56;101928.16;;;3.64;60.45
21273;BME280;36726;52.328;10.552;2023-01-28T12:07:36;101922.13;;;3.80;60.33
21273;BME280;36726;52.328;10.552;2023-01-28T12:10:19;101918.72;;;3.81;59.99
21273;BME280;36726;52.328;10.552;2023-01-28T12:30:05;101889.13;;;4.11;59.51
21273;BME280;36726;52.328;10.552;2023-01-28T12:35:34;101874.50;;;4.14;58.54
21273;BME280;36726;52.328;10.552;2023-01-28T12:38:44;101878.03;;;4.15;58.39
21273;BME280;36726;52.328;10.552;2023-01-28T12:41:17;101863.28;;;4.17;58.60
21273;BME280;36726;52.328;10.552;2023-01-28T12:44:02;101861.88;;;4.22;58.12
21273;BME280;36726;52.328;10.552;2023-01-28T12:46:44;101856.78;;;4.25;58.20
21273;BME280;36726;52.328;10.552;2023-01-28T12:49:28;101839.91;;;4.35;58.29
21273;BME280;36726;52.328;10.552;2023-01-28T12:54:54;101823.78;;;4.58;59.59
21273;BME280;36726;52.328;10.552;2023-01-28T12:57:31;101804.53;;;4.57;59.63
21273;BME280;36726;52.328;10.552;2023-01-28T13:00:18;101793.78;;;4.53;59.24
21273;BME280;36726;52.328;10.552;2023-01-28T13:03:18;101795.50;;;4.52;59.38
21273;BME280;36726;52.328;10.552;2023-01-28T13:05:47;101791.91;;;4.50;59.15
21273;BME280;36726;52.328;10.552;2023-01-28T13:08:23;101780.25;;;4.45;59.21
21273;BME280;36726;52.328;10.552;2023-01-28T13:10:51;101772.25;;;4.42;59.65
21273;BME280;36726;52.328;10.552;2023-01-28T13:16:00;101763.13;;;4.36;59.36
21273;BME280;36726;52.328;10.552;2023-01-28T13:18:43;101773.50;;;4.34;59.11
21273;BME280;36726;52.328;10.552;2023-01-28T13:24:03;101765.59;;;4.18;58.91
21273;BME280;36726;52.328;10.552;2023-01-28T13:31:45;101802.56;;;3.79;59.08
21273;BME280;36726;52.328;10.552;2023-01-28T13:34:40;101817.34;;;3.64;58.56
21273;BME280;36726;52.328;10.552;2023-01-28T13:39:47;101809.81;;;3.41;59.70
21273;BME280;36726;52.328;10.552;2023-01-28T13:42:41;101812.78;;;3.32;60.04
21273;BME280;36726;52.328;10.552;2023-01-28T13:47:45;101827.09;;;3.24;60.10
21273;BME280;36726;52.328;10.552;2023-01-28T13:50:15;101815.38;;;3.17;59.98
21273;BME280;36726;52.328;10.552;2023-01-28T13:52:50;101821.81;;;3.09;60.42
21273;BME280;36726;52.328;10.552;2023-01-28T13:55:22;101830.09;;;3.02;61.05
21273;BME280;36726;52.328;10.552;2023-01-28T14:09:07;101847.72;;;2.92;62.53
21273;BME280;36726;52.328;10.552;2023-01-28T14:14:59;101835.66;;;2.94;62.37
21273;BME280;36726;52.328;10.552;2023-01-28T14:20:26;101839.34;;;2.97;62.32
21273;BME280;36726;52.328;10.552;2023-01-28T14:23:03;101843.69;;;2.97;62.43
21273;BME280;36726;52.328;10.552;2023-01-28T14:26:06;101857.66;;;2.97;62.62
21273;BME280;36726;52.328;10.552;2023-01-28T14:28:59;101848.81;;;2.95;62.85
21273;BME280;36726;52.328;10.552;2023-01-28T14:31:32;101846.19;;;2.95;63.29
21273;BME280;36726;52.328;10.552;2023-01-28T14:34:21;101832.22;;;2.95;62.94
21273;BME280;36726;52.328;10.552;2023-01-28T14:36:49;101831.31;;;2.94;62.95
21273;BME280;36726;52.328;10.552;2023-01-28T14:39:23;101817.16;;;2.91;62.52
21273;BME280;36726;52.328;10.552;2023-01-28T14:41:55;101810.63;;;2.84;63.01
21273;BME280;36726;52.328;10.552;2023-01-28T14:44:38;101808.34;;;2.76;63.31
21273;BME280;36726;52.328;10.552;2023-01-28T14:49:44;101793.81;;;2.53;63.83
21273;BME280;36726;52.328;10.552;2023-01-28T14:55:17;101808.53;;;2.38;64.54
21273;BME280;36726;52.328;10.552;2023-01-28T14:57:52;101806.41;;;2.33;64.44
21273;BME280;36726;52.328;10.552;2023-01-28T15:00:26;101814.75;;;2.27;64.59
21273;BME280;36726;52.328;10.552;2023-01-28T15:02:53;101823.19;;;2.23;64.92
21273;BME280;36726;52.328;10.552;2023-01-28T15:05:23;101834.22;;;2.19;64.98
21273;BME280;36726;52.328;10.552;2023-01-28T15:07:50;101831.09;;;2.11;65.00
21273;BME280;36726;52.328;10.552;2023-01-28T15:10:36;101825.59;;;2.07;65.21
21273;BME280;36726;52.328;10.552;2023-01-28T15:13:16;101832.31;;;2.03;66.05
21273;BME280;36726;52.328;10.552;2023-01-28T15:15:47;101830.00;;;1.95;65.59
21273;BME280;36726;52.328;10.552;2023-01-28T15:18:29;101825.28;;;1.89;66.69